sensor_id;sensor_type;location;lat;lon;timestamp;temperature;humidity
12922;DHT22;6528;48.086;16.282;2022-11-15T00:00:56;21.80;81.50
12922;DHT22;6528;48.086;16.282;2022-11-15T00:03:25;21.80;81.60
12922;DHT22;6528;48.086;16.282;2022-11-15T00:05:52;21.80;81.70
12922;DHT22;6528;48.086;16.282;2022-11-15T00:08:19;21.80;81.70
12922;DHT22;6528;48.086;16.282;2022-11-15T00:10:56;21.80;82.00
12922;DHT22;6528;48.086;16.282;2022-11-15T00:13:23;21.80;82.90
12922;DHT22;6528;48.086;16.282;2022-11-15T00:15:50;21.80;82.30
12922;DHT22;6528;48.086;16.282;2022-11-15T00:18:18;21.80;82.30
12922;DHT22;6528;48.086;16.282;2022-11-15T00:20:44;21.80;82.40
12922;DHT22;6528;48.086;16.282;2022-11-15T00:23:11;21.80;82.40
12922;DHT22;6528;48.086;16.282;2022-11-15T00:25:38;21.70;82.30
12922;DHT22;6528;48.086;16.282;2022-11-15T00:28:05;21.80;82.60
12922;DHT22;6528;48.086;16.282;2022-11-15T00:30:32;21.70;82.60
12922;DHT22;6528;48.086;16.282;2022-11-15T00:33:05;21.70;82.90
12922;DHT22;6528;48.086;16.282;2022-11-15T00:35:33;21.70;82.80
12922;DHT22;6528;48.086;16.282;2022-11-15T00:38:01;21.70;82.80
12922;DHT22;6528;48.086;16.282;2022-11-15T00:40:28;21.70;82.80
12922;DHT22;6528;48.086;16.282;2022-11-15T00:42:55;21.70;82.80
12922;DHT22;6528;48.086;16.282;2022-11-15T00:45:22;21.70;83.00
12922;DHT22;6528;48.086;16.282;2022-11-15T00:47:50;21.70;83.10
12922;DHT22;6528;48.086;16.282;2022-11-15T00:50:17;21.70;83.00
12922;DHT22;6528;48.086;16.282;2022-11-15T00:52:45;21.70;82.90
12922;DHT22;6528;48.086;16.282;2022-11-15T00:55:16;21.70;82.90
12922;DHT22;6528;48.086;16.282;2022-11-15T00:57:43;21.70;82.90
12922;DHT22;6528;48.086;16.282;2022-11-15T01:00:10;21.70;82.90
12922;DHT22;6528;48.086;16.282;2022-11-15T01:02:37;21.70;82.80
12922;DHT22;6528;48.086;16.282;2022-11-15T01:05:05;21.70;82.80
12922;DHT22;6528;48.086;16.282;2022-11-15T01:07:31;21.70;82.80
12922;DHT22;6528;48.086;16.282;2022-11-15T01:09:58;21.70;82.90
12922;DHT22;6528;48.086;16.282;2022-11-15T01:12:25;21.70;82.80
12922;DHT22;6528;48.086;16.282;2022-11-15T01:14:52;21.70;82.70
12922;DHT22;6528;48.086;16.282;2022-11-15T01:17:18;21.60;82.60
12922;DHT22;6528;48.086;16.282;2022-11-15T01:19:45;21.60;82.50
12922;DHT22;6528;48.086;16.282;2022-11-15T01:22:12;21.60;82.40
12922;DHT22;6528;48.086;16.282;2022-11-15T01:24:39;21.60;82.40
12922;DHT22;6528;48.086;16.282;2022-11-15T01:27:05;21.60;82.60
12922;DHT22;6528;48.086;16.282;2022-11-15T01:29:32;21.60;82.60
12922;DHT22;6528;48.086;16.282;2022-11-15T01:31:59;21.60;82.60
12922;DHT22;6528;48.086;16.282;2022-11-15T01:34:26;21.60;82.70
12922;DHT22;6528;48.086;16.282;2022-11-15T01:36:52;21.60;82.70
12922;DHT22;6528;48.086;16.282;2022-11-15T01:39:19;21.60;82.70
12922;DHT22;6528;48.086;16.282;2022-11-15T01:41:46;21.60;82.70
12922;DHT22;6528;48.086;16.282;2022-11-15T01:47:20;21.60;82.80
12922;DHT22;6528;48.086;16.282;2022-11-15T01:52:26;21.60;82.70
12922;DHT22;6528;48.086;16.282;2022-11-15T01:55:04;21.60;82.80
12922;DHT22;6528;48.086;16.282;2022-11-15T01:57:32;21.60;82.80
12922;DHT22;6528;48.086;16.282;2022-11-15T01:59:59;21.60;82.70
12922;DHT22;6528;48.086;16.282;2022-11-15T02:02:27;21.60;82.80
12922;DHT22;6528;48.086;16.282;2022-11-15T02:04:53;21.60;82.80
12922;DHT22;6528;48.086;16.282;2022-11-15T02:07:21;21.60;82.80
12922;DHT22;6528;48.086;16.282;2022-11-15T02:09:49;21.60;82.70
12922;DHT22;6528;48.086;16.282;2022-11-15T02:12:19;21.60;82.70
12922;DHT22;6528;48.086;16.282;2022-11-15T02:14:51;21.60;82.70
12922;DHT22;6528;48.086;16.282;2022-11-15T02:17:26;21.60;82.80
12922;DHT22;6528;48.086;16.282;2022-11-15T02:25:18;21.60;82.70
12922;DHT22;6528;48.086;16.282;2022-11-15T02:38:37;21.60;82.90
12922;DHT22;6528;48.086;16.282;2022-11-15T02:41:13;21.50;82.90
12922;DHT22;6528;48.086;16.282;2022-11-15T02:43:56;21.50;82.80
12922;DHT22;6528;48.086;16.282;2022-11-15T02:49:31;21.60;83.00
12922;DHT22;6528;48.086;16.282;2022-11-15T02:51:59;21.60;83.20
12922;DHT22;6528;48.086;16.282;2022-11-15T02:54:30;21.60;83.30
12922;DHT22;6528;48.086;16.282;2022-11-15T02:57:12;21.60;83.40
12922;DHT22;6528;48.086;16.282;2022-11-15T03:00:05;21.60;83.40
12922;DHT22;6528;48.086;16.282;2022-11-15T03:13:21;21.60;83.20
12922;DHT22;6528;48.086;16.282;2022-11-15T03:16:03;21.60;83.20
12922;DHT22;6528;48.086;16.282;2022-11-15T03:18:43;21.50;83.10
12922;DHT22;6528;48.086;16.282;2022-11-15T03:21:11;21.50;83.10
12922;DHT22;6528;48.086;16.282;2022-11-15T03:23:39;21.50;83.20
12922;DHT22;6528;48.086;16.282;2022-11-15T03:26:08;21.50;83.30
12922;DHT22;6528;48.086;16.282;2022-11-15T03:31:14;21.50;83.50
12922;DHT22;6528;48.086;16.282;2022-11-15T03:34:04;21.50;83.60
12922;DHT22;6528;48.086;16.282;2022-11-15T03:36:33;21.50;83.60
12922;DHT22;6528;48.086;16.282;2022-11-15T03:39:05;21.50;83.70
12922;DHT22;6528;48.086;16.282;2022-11-15T03:45:06;21.50;84.50
12922;DHT22;6528;48.086;16.282;2022-11-15T03:47:45;21.50;83.80
12922;DHT22;6528;48.086;16.282;2022-11-15T03:50:17;21.40;83.60
12922;DHT22;6528;48.086;16.282;2022-11-15T03:52:48;21.50;83.70
12922;DHT22;6528;48.086;16.282;2022-11-15T03:55:19;21.40;83.60
12922;DHT22;6528;48.086;16.282;2022-11-15T03:57:48;21.50;83.80
12922;DHT22;6528;48.086;16.282;2022-11-15T04:00:16;21.50;83.80
12922;DHT22;6528;48.086;16.282;2022-11-15T04:02:43;21.50;83.90
12922;DHT22;6528;48.086;16.282;2022-11-15T04:05:09;21.40;83.80
12922;DHT22;6528;48.086;16.282;2022-11-15T04:07:36;21.40;83.80
12922;DHT22;6528;48.086;16.282;2022-11-15T04:10:04;21.40;83.80
12922;DHT22;6528;48.086;16.282;2022-11-15T04:12:36;21.40;83.90
12922;DHT22;6528;48.086;16.282;2022-11-15T04:15:06;21.50;83.90
12922;DHT22;6528;48.086;16.282;2022-11-15T04:17:38;21.40;83.80
12922;DHT22;6528;48.086;16.282;2022-11-15T04:22:56;21.40;83.90
12922;DHT22;6528;48.086;16.282;2022-11-15T04:25:42;21.40;84.00
12922;DHT22;6528;48.086;16.282;2022-11-15T04:28:10;21.40;84.10
12922;DHT22;6528;48.086;16.282;2022-11-15T04:30:38;21.40;84.10
12922;DHT22;6528;48.086;16.282;2022-11-15T04:33:04;21.40;84.20
12922;DHT22;6528;48.086;16.282;2022-11-15T04:35:31;21.40;84.30
12922;DHT22;6528;48.086;16.282;2022-11-15T04:37:58;21.40;84.30
12922;DHT22;6528;48.086;16.282;2022-11-15T04:40:25;21.40;84.30
12922;DHT22;6528;48.086;16.282;2022-11-15T04:42:52;21.40;84.30
12922;DHT22;6528;48.086;16.282;2022-11-15T04:45:19;21.40;84.30
12922;DHT22;6528;48.086;16.282;2022-11-15T04:47:46;21.50;84.50
12922;DHT22;6528;48.086;16.282;2022-11-15T04:50:13;21.40;84.40
12922;DHT22;6528;48.086;16.282;2022-11-15T04:52:42;21.40;84.50
12922;DHT22;6528;48.086;16.282;2022-11-15T04:55:10;21.40;84.70
12922;DHT22;6528;48.086;16.282;2022-11-15T04:57:37;21.50;85.00
12922;DHT22;6528;48.086;16.282;2022-11-15T05:00:06;21.40;84.90
12922;DHT22;6528;48.086;16.282;2022-11-15T05:02:34;21.40;85.00
12922;DHT22;6528;48.086;16.282;2022-11-15T05:05:19;21.50;85.10
12922;DHT22;6528;48.086;16.282;2022-11-15T05:07:46;21.50;85.10
12922;DHT22;6528;48.086;16.282;2022-11-15T05:10:13;21.50;85.00
12922;DHT22;6528;48.086;16.282;2022-11-15T05:12:39;21.40;85.00
12922;DHT22;6528;48.086;16.282;2022-11-15T05:15:06;21.50;85.10
12922;DHT22;6528;48.086;16.282;2022-11-15T05:17:33;21.50;85.20
12922;DHT22;6528;48.086;16.282;2022-11-15T05:20:00;21.50;85.20
12922;DHT22;6528;48.086;16.282;2022-11-15T05:22:27;21.50;85.30
12922;DHT22;6528;48.086;16.282;2022-11-15T05:24:54;21.50;85.30
12922;DHT22;6528;48.086;16.282;2022-11-15T05:27:20;21.50;85.30
12922;DHT22;6528;48.086;16.282;2022-11-15T05:29:47;21.50;85.30
12922;DHT22;6528;48.086;16.282;2022-11-15T05:32:14;21.50;85.30
12922;DHT22;6528;48.086;16.282;2022-11-15T05:34:41;21.50;85.30
12922;DHT22;6528;48.086;16.282;2022-11-15T05:37:07;21.50;85.20
12922;DHT22;6528;48.086;16.282;2022-11-15T05:39:34;21.50;85.20
12922;DHT22;6528;48.086;16.282;2022-11-15T05:42:11;21.50;85.20
12922;DHT22;6528;48.086;16.282;2022-11-15T05:44:41;21.50;85.30
12922;DHT22;6528;48.086;16.282;2022-11-15T05:47:11;21.60;85.30
12922;DHT22;6528;48.086;16.282;2022-11-15T05:49:42;21.60;85.30
12922;DHT22;6528;48.086;16.282;2022-11-15T05:52:11;21.60;86.00
12922;DHT22;6528;48.086;16.282;2022-11-15T05:54:39;21.60;86.00
12922;DHT22;6528;48.086;16.282;2022-11-15T05:57:07;21.70;86.00
12922;DHT22;6528;48.086;16.282;2022-11-15T05:59:34;21.70;85.80
12922;DHT22;6528;48.086;16.282;2022-11-15T06:02:01;21.70;85.70
12922;DHT22;6528;48.086;16.282;2022-11-15T06:04:28;21.70;85.70
12922;DHT22;6528;48.086;16.282;2022-11-15T06:06:55;21.80;85.50
12922;DHT22;6528;48.086;16.282;2022-11-15T06:09:22;21.80;85.30
12922;DHT22;6528;48.086;16.282;2022-11-15T06:11:48;21.80;85.20
12922;DHT22;6528;48.086;16.282;2022-11-15T06:14:15;21.90;85.00
12922;DHT22;6528;48.086;16.282;2022-11-15T06:16:43;21.90;84.80
12922;DHT22;6528;48.086;16.282;2022-11-15T06:19:10;22.00;84.80
12922;DHT22;6528;48.086;16.282;2022-11-15T06:21:37;22.00;84.60
12922;DHT22;6528;48.086;16.282;2022-11-15T06:24:04;22.00;84.40
12922;DHT22;6528;48.086;16.282;2022-11-15T06:26:31;22.00;84.30
12922;DHT22;6528;48.086;16.282;2022-11-15T06:28:58;22.00;84.30
12922;DHT22;6528;48.086;16.282;2022-11-15T06:31:25;22.10;84.20
12922;DHT22;6528;48.086;16.282;2022-11-15T06:33:52;22.00;83.90
12922;DHT22;6528;48.086;16.282;2022-11-15T06:36:18;22.10;83.90
12922;DHT22;6528;48.086;16.282;2022-11-15T06:38:45;22.10;83.80
12922;DHT22;6528;48.086;16.282;2022-11-15T06:41:13;22.10;83.70
12922;DHT22;6528;48.086;16.282;2022-11-15T06:43:40;22.10;83.60
12922;DHT22;6528;48.086;16.282;2022-11-15T06:46:07;22.10;83.50
12922;DHT22;6528;48.086;16.282;2022-11-15T06:48:34;22.20;83.50
12922;DHT22;6528;48.086;16.282;2022-11-15T06:51:02;22.20;83.30
12922;DHT22;6528;48.086;16.282;2022-11-15T06:53:29;22.20;83.30
12922;DHT22;6528;48.086;16.282;2022-11-15T06:56:01;22.20;83.30
12922;DHT22;6528;48.086;16.282;2022-11-15T06:58:28;22.20;83.20
12922;DHT22;6528;48.086;16.282;2022-11-15T07:01:02;22.20;83.10
12922;DHT22;6528;48.086;16.282;2022-11-15T07:03:30;22.20;83.00
12922;DHT22;6528;48.086;16.282;2022-11-15T07:05:57;22.30;83.00
12922;DHT22;6528;48.086;16.282;2022-11-15T07:08:32;22.30;83.00
12922;DHT22;6528;48.086;16.282;2022-11-15T07:11:00;22.30;82.80
12922;DHT22;6528;48.086;16.282;2022-11-15T07:13:30;22.30;82.70
12922;DHT22;6528;48.086;16.282;2022-11-15T07:16:05;22.30;82.60
12922;DHT22;6528;48.086;16.282;2022-11-15T07:18:34;22.30;82.60
12922;DHT22;6528;48.086;16.282;2022-11-15T07:21:06;22.30;82.60
12922;DHT22;6528;48.086;16.282;2022-11-15T07:23:36;22.30;82.60
12922;DHT22;6528;48.086;16.282;2022-11-15T07:26:03;22.30;82.50
12922;DHT22;6528;48.086;16.282;2022-11-15T07:28:31;22.30;82.40
12922;DHT22;6528;48.086;16.282;2022-11-15T07:30:58;22.40;82.40
12922;DHT22;6528;48.086;16.282;2022-11-15T07:33:24;22.40;82.40
12922;DHT22;6528;48.086;16.282;2022-11-15T07:35:51;22.40;82.30
12922;DHT22;6528;48.086;16.282;2022-11-15T07:38:18;22.40;82.30
12922;DHT22;6528;48.086;16.282;2022-11-15T07:40:59;22.40;82.30
12922;DHT22;6528;48.086;16.282;2022-11-15T07:43:27;22.40;82.10
12922;DHT22;6528;48.086;16.282;2022-11-15T07:45:57;22.40;82.10
12922;DHT22;6528;48.086;16.282;2022-11-15T07:48:25;22.40;82.10
12922;DHT22;6528;48.086;16.282;2022-11-15T07:51:06;22.40;82.00
12922;DHT22;6528;48.086;16.282;2022-11-15T07:53:39;22.50;82.10
12922;DHT22;6528;48.086;16.282;2022-11-15T07:56:07;22.50;82.00
12922;DHT22;6528;48.086;16.282;2022-11-15T07:58:34;22.50;82.00
12922;DHT22;6528;48.086;16.282;2022-11-15T08:01:06;22.50;81.90
12922;DHT22;6528;48.086;16.282;2022-11-15T08:03:33;22.40;82.60
12922;DHT22;6528;48.086;16.282;2022-11-15T08:06:00;22.50;81.90
12922;DHT22;6528;48.086;16.282;2022-11-15T08:08:27;22.50;81.90
12922;DHT22;6528;48.086;16.282;2022-11-15T08:10:54;22.50;81.80
12922;DHT22;6528;48.086;16.282;2022-11-15T08:13:21;22.50;81.80
12922;DHT22;6528;48.086;16.282;2022-11-15T08:15:48;22.50;81.70
12922;DHT22;6528;48.086;16.282;2022-11-15T08:18:21;22.50;81.70
12922;DHT22;6528;48.086;16.282;2022-11-15T08:20:48;22.50;81.70
12922;DHT22;6528;48.086;16.282;2022-11-15T08:23:15;22.50;81.60
12922;DHT22;6528;48.086;16.282;2022-11-15T08:25:42;22.50;81.60
12922;DHT22;6528;48.086;16.282;2022-11-15T08:28:10;22.50;81.60
12922;DHT22;6528;48.086;16.282;2022-11-15T08:30:38;22.50;81.50
12922;DHT22;6528;48.086;16.282;2022-11-15T08:33:11;22.60;81.60
12922;DHT22;6528;48.086;16.282;2022-11-15T08:35:40;22.50;81.50
12922;DHT22;6528;48.086;16.282;2022-11-15T08:38:07;22.50;81.50
12922;DHT22;6528;48.086;16.282;2022-11-15T08:40:35;22.50;81.50
12922;DHT22;6528;48.086;16.282;2022-11-15T08:43:02;22.50;81.50
12922;DHT22;6528;48.086;16.282;2022-11-15T08:45:30;22.50;81.50
12922;DHT22;6528;48.086;16.282;2022-11-15T08:47:56;22.50;81.30
12922;DHT22;6528;48.086;16.282;2022-11-15T08:50:23;22.50;81.40
12922;DHT22;6528;48.086;16.282;2022-11-15T08:52:50;22.50;81.40
12922;DHT22;6528;48.086;16.282;2022-11-15T08:55:17;22.60;81.40
12922;DHT22;6528;48.086;16.282;2022-11-15T08:57:44;22.60;81.40
12922;DHT22;6528;48.086;16.282;2022-11-15T09:00:12;22.60;81.30
12922;DHT22;6528;48.086;16.282;2022-11-15T09:02:39;22.60;81.20
12922;DHT22;6528;48.086;16.282;2022-11-15T09:05:07;22.60;81.20
12922;DHT22;6528;48.086;16.282;2022-11-15T09:07:34;22.60;81.20
12922;DHT22;6528;48.086;16.282;2022-11-15T09:10:00;22.60;81.30
12922;DHT22;6528;48.086;16.282;2022-11-15T09:12:27;22.60;81.30
12922;DHT22;6528;48.086;16.282;2022-11-15T09:14:54;22.60;81.30
12922;DHT22;6528;48.086;16.282;2022-11-15T09:17:21;22.50;81.10
12922;DHT22;6528;48.086;16.282;2022-11-15T09:19:50;22.60;81.20
12922;DHT22;6528;48.086;16.282;2022-11-15T09:22:17;22.50;81.00
12922;DHT22;6528;48.086;16.282;2022-11-15T09:24:45;22.60;81.10
12922;DHT22;6528;48.086;16.282;2022-11-15T09:27:11;22.60;81.00
12922;DHT22;6528;48.086;16.282;2022-11-15T09:29:39;22.60;81.80
12922;DHT22;6528;48.086;16.282;2022-11-15T09:32:06;22.50;80.80
12922;DHT22;6528;48.086;16.282;2022-11-15T09:34:33;22.60;80.80
12922;DHT22;6528;48.086;16.282;2022-11-15T09:37:00;22.60;80.80
12922;DHT22;6528;48.086;16.282;2022-11-15T09:39:27;22.50;80.60
12922;DHT22;6528;48.086;16.282;2022-11-15T09:50:28;22.60;80.30
12922;DHT22;6528;48.086;16.282;2022-11-15T09:52:57;22.50;80.20
12922;DHT22;6528;48.086;16.282;2022-11-15T09:55:35;22.50;80.20
12922;DHT22;6528;48.086;16.282;2022-11-15T09:58:15;22.50;80.20
12922;DHT22;6528;48.086;16.282;2022-11-15T10:00:47;22.50;80.20
12922;DHT22;6528;48.086;16.282;2022-11-15T10:03:30;22.50;80.20
12922;DHT22;6528;48.086;16.282;2022-11-15T10:06:02;22.50;80.00
12922;DHT22;6528;48.086;16.282;2022-11-15T10:08:58;22.50;80.00
12922;DHT22;6528;48.086;16.282;2022-11-15T10:11:25;22.50;79.90
12922;DHT22;6528;48.086;16.282;2022-11-15T10:14:16;22.50;79.80
12922;DHT22;6528;48.086;16.282;2022-11-15T10:22:46;22.50;79.50
12922;DHT22;6528;48.086;16.282;2022-11-15T10:25:26;22.50;79.50
12922;DHT22;6528;48.086;16.282;2022-11-15T10:28:14;22.60;79.50
12922;DHT22;6528;48.086;16.282;2022-11-15T10:30:46;22.60;79.50
12922;DHT22;6528;48.086;16.282;2022-11-15T10:33:18;22.60;79.40
12922;DHT22;6528;48.086;16.282;2022-11-15T10:35:46;22.60;79.40
12922;DHT22;6528;48.086;16.282;2022-11-15T10:38:13;22.60;79.30
12922;DHT22;6528;48.086;16.282;2022-11-15T10:40:41;22.60;79.30
12922;DHT22;6528;48.086;16.282;2022-11-15T10:43:15;22.60;80.10
12922;DHT22;6528;48.086;16.282;2022-11-15T10:45:43;22.60;79.30
12922;DHT22;6528;48.086;16.282;2022-11-15T10:50:44;22.60;79.30
12922;DHT22;6528;48.086;16.282;2022-11-15T10:53:27;22.60;79.40
12922;DHT22;6528;48.086;16.282;2022-11-15T10:55:57;22.60;79.30
12922;DHT22;6528;48.086;16.282;2022-11-15T11:01:18;22.60;79.30
12922;DHT22;6528;48.086;16.282;2022-11-15T11:04:02;22.60;79.30
12922;DHT22;6528;48.086;16.282;2022-11-15T11:06:30;22.60;79.30
12922;DHT22;6528;48.086;16.282;2022-11-15T11:09:02;22.60;79.30
12922;DHT22;6528;48.086;16.282;2022-11-15T11:11:51;22.60;79.30
12922;DHT22;6528;48.086;16.282;2022-11-15T11:14:23;22.60;79.30
12922;DHT22;6528;48.086;16.282;2022-11-15T11:19:56;22.60;79.30
12922;DHT22;6528;48.086;16.282;2022-11-15T11:22:52;22.60;79.30
12922;DHT22;6528;48.086;16.282;2022-11-15T11:36:53;22.60;79.50
12922;DHT22;6528;48.086;16.282;2022-11-15T11:40:01;22.60;79.50
12922;DHT22;6528;48.086;16.282;2022-11-15T11:48:14;22.60;79.60
12922;DHT22;6528;48.086;16.282;2022-11-15T11:50:46;22.60;80.50
12922;DHT22;6528;48.086;16.282;2022-11-15T11:56:03;22.60;79.70
12922;DHT22;6528;48.086;16.282;2022-11-15T11:58:42;22.60;79.60
12922;DHT22;6528;48.086;16.282;2022-11-15T12:01:30;22.60;79.60
12922;DHT22;6528;48.086;16.282;2022-11-15T12:06:48;22.60;79.60
12922;DHT22;6528;48.086;16.282;2022-11-15T12:11:56;22.60;79.60
12922;DHT22;6528;48.086;16.282;2022-11-15T12:14:36;22.60;79.60
12922;DHT22;6528;48.086;16.282;2022-11-15T12:17:07;22.60;79.60
12922;DHT22;6528;48.086;16.282;2022-11-15T12:19:35;22.60;79.60
12922;DHT22;6528;48.086;16.282;2022-11-15T12:22:06;22.60;79.60
12922;DHT22;6528;48.086;16.282;2022-11-15T12:27:20;22.60;79.70
12922;DHT22;6528;48.086;16.282;2022-11-15T12:29:58;22.60;79.70
12922;DHT22;6528;48.086;16.282;2022-11-15T12:32:33;22.60;80.40
12922;DHT22;6528;48.086;16.282;2022-11-15T12:35:03;22.60;79.70
12922;DHT22;6528;48.086;16.282;2022-11-15T12:40:18;22.60;79.80
12922;DHT22;6528;48.086;16.282;2022-11-15T12:45:38;22.50;79.70
12922;DHT22;6528;48.086;16.282;2022-11-15T12:50:56;22.50;79.80
12922;DHT22;6528;48.086;16.282;2022-11-15T12:58:56;22.40;79.90
12922;DHT22;6528;48.086;16.282;2022-11-15T13:06:54;22.40;80.00
12922;DHT22;6528;48.086;16.282;2022-11-15T13:17:34;22.40;80.10
12922;DHT22;6528;48.086;16.282;2022-11-15T13:22:49;22.30;80.00
12922;DHT22;6528;48.086;16.282;2022-11-15T13:35:58;22.30;80.00
12922;DHT22;6528;48.086;16.282;2022-11-15T13:38:27;22.30;80.00
12922;DHT22;6528;48.086;16.282;2022-11-15T13:40:56;22.30;80.30
12922;DHT22;6528;48.086;16.282;2022-11-15T13:48:36;22.30;80.40
12922;DHT22;6528;48.086;16.282;2022-11-15T13:51:33;22.30;80.80
12922;DHT22;6528;48.086;16.282;2022-11-15T13:54:29;22.30;80.90
12922;DHT22;6528;48.086;16.282;2022-11-15T13:57:09;22.40;81.10
12922;DHT22;6528;48.086;16.282;2022-11-15T14:02:16;22.40;81.10
12922;DHT22;6528;48.086;16.282;2022-11-15T14:04:50;22.40;81.20
12922;DHT22;6528;48.086;16.282;2022-11-15T14:07:19;22.40;81.20
12922;DHT22;6528;48.086;16.282;2022-11-15T14:09:47;22.50;81.30
12922;DHT22;6528;48.086;16.282;2022-11-15T14:12:27;22.50;81.30
12922;DHT22;6528;48.086;16.282;2022-11-15T14:14:55;22.50;81.40
12922;DHT22;6528;48.086;16.282;2022-11-15T14:19:56;22.50;81.60
12922;DHT22;6528;48.086;16.282;2022-11-15T14:25:14;22.50;81.70
12922;DHT22;6528;48.086;16.282;2022-11-15T14:27:44;22.60;81.80
12922;DHT22;6528;48.086;16.282;2022-11-15T14:30:30;22.60;81.90
12922;DHT22;6528;48.086;16.282;2022-11-15T14:32:57;22.60;82.00
12922;DHT22;6528;48.086;16.282;2022-11-15T14:35:24;22.60;82.00
12922;DHT22;6528;48.086;16.282;2022-11-15T14:37:51;22.60;82.00
12922;DHT22;6528;48.086;16.282;2022-11-15T14:40:21;22.60;82.00
12922;DHT22;6528;48.086;16.282;2022-11-15T14:42:49;22.60;82.00
12922;DHT22;6528;48.086;16.282;2022-11-15T14:45:21;22.60;82.10
12922;DHT22;6528;48.086;16.282;2022-11-15T14:47:48;22.60;82.00
12922;DHT22;6528;48.086;16.282;2022-11-15T14:50:20;22.60;82.00
12922;DHT22;6528;48.086;16.282;2022-11-15T14:52:48;22.60;82.00
12922;DHT22;6528;48.086;16.282;2022-11-15T14:55:19;22.60;82.00
12922;DHT22;6528;48.086;16.282;2022-11-15T14:57:47;22.70;82.10
12922;DHT22;6528;48.086;16.282;2022-11-15T15:00:14;22.70;82.30
12922;DHT22;6528;48.086;16.282;2022-11-15T15:02:43;22.70;82.30
12922;DHT22;6528;48.086;16.282;2022-11-15T15:05:25;22.60;83.00
12922;DHT22;6528;48.086;16.282;2022-11-15T15:07:52;22.70;82.40
12922;DHT22;6528;48.086;16.282;2022-11-15T15:10:22;22.70;82.40
12922;DHT22;6528;48.086;16.282;2022-11-15T15:13:18;22.70;82.50
12922;DHT22;6528;48.086;16.282;2022-11-15T15:15:45;22.70;82.50
12922;DHT22;6528;48.086;16.282;2022-11-15T15:18:12;22.70;82.50
12922;DHT22;6528;48.086;16.282;2022-11-15T15:20:41;22.70;82.50
12922;DHT22;6528;48.086;16.282;2022-11-15T15:23:16;22.70;82.60
12922;DHT22;6528;48.086;16.282;2022-11-15T15:25:44;22.70;82.70
12922;DHT22;6528;48.086;16.282;2022-11-15T15:28:12;22.70;82.70
12922;DHT22;6528;48.086;16.282;2022-11-15T15:30:39;22.70;82.90
12922;DHT22;6528;48.086;16.282;2022-11-15T15:33:06;22.70;83.00
12922;DHT22;6528;48.086;16.282;2022-11-15T15:35:34;22.70;83.00
12922;DHT22;6528;48.086;16.282;2022-11-15T15:38:01;22.70;82.90
12922;DHT22;6528;48.086;16.282;2022-11-15T15:40:29;22.70;82.90
12922;DHT22;6528;48.086;16.282;2022-11-15T15:42:57;22.70;83.50
12922;DHT22;6528;48.086;16.282;2022-11-15T15:45:25;22.70;83.00
12922;DHT22;6528;48.086;16.282;2022-11-15T15:47:52;22.70;83.00
12922;DHT22;6528;48.086;16.282;2022-11-15T15:50:33;22.70;83.80
12922;DHT22;6528;48.086;16.282;2022-11-15T15:53:02;22.70;83.00
12922;DHT22;6528;48.086;16.282;2022-11-15T15:55:29;22.80;83.10
12922;DHT22;6528;48.086;16.282;2022-11-15T15:57:56;22.70;83.00
12922;DHT22;6528;48.086;16.282;2022-11-15T16:00:24;22.80;83.10
12922;DHT22;6528;48.086;16.282;2022-11-15T16:02:52;22.70;83.10
12922;DHT22;6528;48.086;16.282;2022-11-15T16:05:20;22.70;83.10
12922;DHT22;6528;48.086;16.282;2022-11-15T16:07:48;22.80;83.20
12922;DHT22;6528;48.086;16.282;2022-11-15T16:10:32;22.70;83.20
12922;DHT22;6528;48.086;16.282;2022-11-15T16:13:00;22.80;83.30
12922;DHT22;6528;48.086;16.282;2022-11-15T16:15:30;22.80;83.20
12922;DHT22;6528;48.086;16.282;2022-11-15T16:17:58;22.80;83.30
12922;DHT22;6528;48.086;16.282;2022-11-15T16:23:09;22.80;83.20
12922;DHT22;6528;48.086;16.282;2022-11-15T16:28:18;22.70;83.10
12922;DHT22;6528;48.086;16.282;2022-11-15T16:30:45;22.70;83.10
12922;DHT22;6528;48.086;16.282;2022-11-15T16:33:19;22.70;83.10
12922;DHT22;6528;48.086;16.282;2022-11-15T16:35:46;22.70;83.10
12922;DHT22;6528;48.086;16.282;2022-11-15T16:38:15;22.70;83.20
12922;DHT22;6528;48.086;16.282;2022-11-15T16:40:42;22.70;83.20
12922;DHT22;6528;48.086;16.282;2022-11-15T16:43:09;22.70;83.20
12922;DHT22;6528;48.086;16.282;2022-11-15T16:45:36;22.70;83.20
12922;DHT22;6528;48.086;16.282;2022-11-15T16:48:03;22.70;83.20
12922;DHT22;6528;48.086;16.282;2022-11-15T16:50:32;22.70;83.60
12922;DHT22;6528;48.086;16.282;2022-11-15T16:53:05;22.80;83.50
12922;DHT22;6528;48.086;16.282;2022-11-15T16:55:32;22.70;83.20
12922;DHT22;6528;48.086;16.282;2022-11-15T16:57:59;22.70;83.00
12922;DHT22;6528;48.086;16.282;2022-11-15T17:00:27;22.70;83.10
12922;DHT22;6528;48.086;16.282;2022-11-15T17:02:54;22.70;82.90
12922;DHT22;6528;48.086;16.282;2022-11-15T17:05:23;22.70;82.70
12922;DHT22;6528;48.086;16.282;2022-11-15T17:07:50;22.70;82.70
12922;DHT22;6528;48.086;16.282;2022-11-15T17:10:22;22.70;82.60
12922;DHT22;6528;48.086;16.282;2022-11-15T17:12:50;22.70;82.80
12922;DHT22;6528;48.086;16.282;2022-11-15T17:15:18;22.70;83.10
12922;DHT22;6528;48.086;16.282;2022-11-15T17:17:51;22.70;83.30
12922;DHT22;6528;48.086;16.282;2022-11-15T17:20:20;22.70;83.50
12922;DHT22;6528;48.086;16.282;2022-11-15T17:22:47;22.70;83.70
12922;DHT22;6528;48.086;16.282;2022-11-15T17:25:14;22.70;83.80
12922;DHT22;6528;48.086;16.282;2022-11-15T17:27:41;22.70;83.90
12922;DHT22;6528;48.086;16.282;2022-11-15T17:30:11;22.80;83.90
12922;DHT22;6528;48.086;16.282;2022-11-15T17:32:38;22.80;83.80
12922;DHT22;6528;48.086;16.282;2022-11-15T17:35:05;22.80;83.80
12922;DHT22;6528;48.086;16.282;2022-11-15T17:37:40;22.80;83.80
12922;DHT22;6528;48.086;16.282;2022-11-15T17:40:07;22.80;83.60
12922;DHT22;6528;48.086;16.282;2022-11-15T17:42:34;22.80;83.60
12922;DHT22;6528;48.086;16.282;2022-11-15T17:45:01;22.80;83.60
12922;DHT22;6528;48.086;16.282;2022-11-15T17:47:35;22.90;84.40
12922;DHT22;6528;48.086;16.282;2022-11-15T17:50:02;22.90;83.60
12922;DHT22;6528;48.086;16.282;2022-11-15T17:52:29;22.90;83.50
12922;DHT22;6528;48.086;16.282;2022-11-15T17:54:56;22.90;83.50
12922;DHT22;6528;48.086;16.282;2022-11-15T17:57:22;22.90;83.60
12922;DHT22;6528;48.086;16.282;2022-11-15T17:59:49;22.90;83.50
12922;DHT22;6528;48.086;16.282;2022-11-15T18:02:16;22.90;83.50
12922;DHT22;6528;48.086;16.282;2022-11-15T18:04:43;22.90;83.50
12922;DHT22;6528;48.086;16.282;2022-11-15T18:07:09;22.90;83.40
12922;DHT22;6528;48.086;16.282;2022-11-15T18:09:37;23.00;83.50
12922;DHT22;6528;48.086;16.282;2022-11-15T18:12:08;23.00;83.50
12922;DHT22;6528;48.086;16.282;2022-11-15T18:14:35;23.00;83.50
12922;DHT22;6528;48.086;16.282;2022-11-15T18:17:02;23.00;83.40
12922;DHT22;6528;48.086;16.282;2022-11-15T18:19:29;23.00;83.40
12922;DHT22;6528;48.086;16.282;2022-11-15T18:21:56;23.00;83.30